sensor_id;sensor_type;location;lat;lon;timestamp;temperature;humidity
31455;DHT22;18084;53.028;8.834;2024-03-23T00:54:04;6.50;84.30
31455;DHT22;18084;53.028;8.834;2024-03-23T00:56:29;6.40;84.50
31455;DHT22;18084;53.028;8.834;2024-03-23T00:58:56;6.50;84.50
31455;DHT22;18084;53.028;8.834;2024-03-23T01:01:22;6.40;84.60
31455;DHT22;18084;53.028;8.834;2024-03-23T01:03:47;6.40;84.60
31455;DHT22;18084;53.028;8.834;2024-03-23T01:06:13;6.40;84.60
31455;DHT22;18084;53.028;8.834;2024-03-23T01:08:42;6.30;84.80
31455;DHT22;18084;53.028;8.834;2024-03-23T01:11:07;6.30;84.90
31455;DHT22;18084;53.028;8.834;2024-03-23T01:13:33;6.30;84.90
31455;DHT22;18084;53.028;8.834;2024-03-23T01:15:59;6.30;85.00
31455;DHT22;18084;53.028;8.834;2024-03-23T01:18:24;6.30;85.20
31455;DHT22;18084;53.028;8.834;2024-03-23T01:20:51;6.30;84.90
31455;DHT22;18084;53.028;8.834;2024-03-23T01:23:17;6.30;85.00
31455;DHT22;18084;53.028;8.834;2024-03-23T01:25:42;6.30;85.00
31455;DHT22;18084;53.028;8.834;2024-03-23T01:28:08;6.30;85.00
31455;DHT22;18084;53.028;8.834;2024-03-23T01:30:34;6.30;85.00
31455;DHT22;18084;53.028;8.834;2024-03-23T01:33:00;6.30;85.00
31455;DHT22;18084;53.028;8.834;2024-03-23T01:35:25;6.20;84.90
31455;DHT22;18084;53.028;8.834;2024-03-23T01:37:53;6.20;84.90
31455;DHT22;18084;53.028;8.834;2024-03-23T01:40:18;6.30;84.80
31455;DHT22;18084;53.028;8.834;2024-03-23T01:43:05;6.20;84.80
31455;DHT22;18084;53.028;8.834;2024-03-23T01:45:32;6.20;84.80
31455;DHT22;18084;53.028;8.834;2024-03-23T01:47:58;6.20;84.70
31455;DHT22;18084;53.028;8.834;2024-03-23T01:50:27;6.20;84.80
31455;DHT22;18084;53.028;8.834;2024-03-23T01:52:53;6.20;84.80
31455;DHT22;18084;53.028;8.834;2024-03-23T01:55:20;6.20;84.80
31455;DHT22;18084;53.028;8.834;2024-03-23T01:57:45;6.10;84.80
31455;DHT22;18084;53.028;8.834;2024-03-23T02:00:11;6.10;84.90
31455;DHT22;18084;53.028;8.834;2024-03-23T02:02:44;6.10;84.90
31455;DHT22;18084;53.028;8.834;2024-03-23T02:05:11;6.10;84.90
31455;DHT22;18084;53.028;8.834;2024-03-23T02:07:40;6.10;84.90
31455;DHT22;18084;53.028;8.834;2024-03-23T02:10:07;6.10;85.00
31455;DHT22;18084;53.028;8.834;2024-03-23T02:12:33;6.10;84.90
31455;DHT22;18084;53.028;8.834;2024-03-23T02:14:59;6.00;85.00
31455;DHT22;18084;53.028;8.834;2024-03-23T02:17:25;6.00;85.00
31455;DHT22;18084;53.028;8.834;2024-03-23T02:19:50;6.00;85.10
31455;DHT22;18084;53.028;8.834;2024-03-23T02:22:16;6.00;85.10
31455;DHT22;18084;53.028;8.834;2024-03-23T02:24:42;6.00;85.20
31455;DHT22;18084;53.028;8.834;2024-03-23T02:27:09;6.00;85.10
31455;DHT22;18084;53.028;8.834;2024-03-23T02:29:34;5.90;85.20
31455;DHT22;18084;53.028;8.834;2024-03-23T02:32:00;5.90;85.10
31455;DHT22;18084;53.028;8.834;2024-03-23T02:34:26;5.90;85.30
31455;DHT22;18084;53.028;8.834;2024-03-23T02:36:52;5.90;85.30
31455;DHT22;18084;53.028;8.834;2024-03-23T02:39:17;5.90;85.20
31455;DHT22;18084;53.028;8.834;2024-03-23T02:41:43;5.90;85.20
31455;DHT22;18084;53.028;8.834;2024-03-23T02:44:08;5.90;85.50
31455;DHT22;18084;53.028;8.834;2024-03-23T02:46:37;5.90;85.30
31455;DHT22;18084;53.028;8.834;2024-03-23T02:49:03;5.90;85.20
31455;DHT22;18084;53.028;8.834;2024-03-23T02:51:30;5.80;85.40
31455;DHT22;18084;53.028;8.834;2024-03-23T02:53:56;5.90;85.50
31455;DHT22;18084;53.028;8.834;2024-03-23T02:56:23;5.90;85.40
31455;DHT22;18084;53.028;8.834;2024-03-23T02:58:48;5.90;85.20
31455;DHT22;18084;53.028;8.834;2024-03-23T03:01:14;5.80;85.30
31455;DHT22;18084;53.028;8.834;2024-03-23T03:03:39;5.80;85.60
31455;DHT22;18084;53.028;8.834;2024-03-23T03:06:05;5.90;85.50
31455;DHT22;18084;53.028;8.834;2024-03-23T03:08:30;5.90;85.70
31455;DHT22;18084;53.028;8.834;2024-03-23T03:10:56;5.90;85.70
31455;DHT22;18084;53.028;8.834;2024-03-23T03:13:21;5.80;85.60
31455;DHT22;18084;53.028;8.834;2024-03-23T03:15:47;5.80;85.70
31455;DHT22;18084;53.028;8.834;2024-03-23T03:18:13;5.80;85.60
31455;DHT22;18084;53.028;8.834;2024-03-23T03:20:39;5.80;85.70
31455;DHT22;18084;53.028;8.834;2024-03-23T03:23:05;5.70;85.70
31455;DHT22;18084;53.028;8.834;2024-03-23T03:25:31;5.70;85.80
31455;DHT22;18084;53.028;8.834;2024-03-23T03:27:58;5.70;85.90
31455;DHT22;18084;53.028;8.834;2024-03-23T03:30:23;5.70;85.90
31455;DHT22;18084;53.028;8.834;2024-03-23T03:32:49;5.70;86.00
31455;DHT22;18084;53.028;8.834;2024-03-23T03:35:15;5.70;85.90
31455;DHT22;18084;53.028;8.834;2024-03-23T03:37:41;5.70;85.90
31455;DHT22;18084;53.028;8.834;2024-03-23T03:40:07;5.80;85.80
31455;DHT22;18084;53.028;8.834;2024-03-23T03:42:34;5.80;85.80
31455;DHT22;18084;53.028;8.834;2024-03-23T03:45:00;5.70;85.60
31455;DHT22;18084;53.028;8.834;2024-03-23T03:47:25;5.80;85.70
31455;DHT22;18084;53.028;8.834;2024-03-23T03:49:50;5.70;85.50
31455;DHT22;18084;53.028;8.834;2024-03-23T03:52:17;5.70;85.70
31455;DHT22;18084;53.028;8.834;2024-03-23T03:54:43;5.70;85.80
31455;DHT22;18084;53.028;8.834;2024-03-23T03:57:08;5.60;85.70
31455;DHT22;18084;53.028;8.834;2024-03-23T03:59:34;5.60;85.70
31455;DHT22;18084;53.028;8.834;2024-03-23T04:01:59;5.60;85.90
31455;DHT22;18084;53.028;8.834;2024-03-23T04:04:25;5.50;86.00
31455;DHT22;18084;53.028;8.834;2024-03-23T04:06:59;5.60;86.10
31455;DHT22;18084;53.028;8.834;2024-03-23T04:09:24;5.50;85.80
31455;DHT22;18084;53.028;8.834;2024-03-23T04:11:50;5.50;86.10
31455;DHT22;18084;53.028;8.834;2024-03-23T04:14:15;5.50;86.20
31455;DHT22;18084;53.028;8.834;2024-03-23T04:16:44;5.50;86.00
31455;DHT22;18084;53.028;8.834;2024-03-23T04:19:09;5.50;86.40
31455;DHT22;18084;53.028;8.834;2024-03-23T04:21:36;5.50;86.30
31455;DHT22;18084;53.028;8.834;2024-03-23T04:24:05;5.40;86.40
31455;DHT22;18084;53.028;8.834;2024-03-23T04:26:40;5.50;86.20
31455;DHT22;18084;53.028;8.834;2024-03-23T04:29:07;5.40;86.30
31455;DHT22;18084;53.028;8.834;2024-03-23T04:31:32;5.40;86.50
31455;DHT22;18084;53.028;8.834;2024-03-23T04:34:01;5.40;86.50
31455;DHT22;18084;53.028;8.834;2024-03-23T04:36:27;5.40;86.30
31455;DHT22;18084;53.028;8.834;2024-03-23T04:38:52;5.50;86.30
31455;DHT22;18084;53.028;8.834;2024-03-23T04:41:18;5.40;86.10
31455;DHT22;18084;53.028;8.834;2024-03-23T04:43:43;5.50;86.20
31455;DHT22;18084;53.028;8.834;2024-03-23T04:46:09;5.40;86.20
31455;DHT22;18084;53.028;8.834;2024-03-23T04:48:35;5.40;86.00
31455;DHT22;18084;53.028;8.834;2024-03-23T04:51:02;5.40;86.00
31455;DHT22;18084;53.028;8.834;2024-03-23T04:53:27;5.40;86.00
31455;DHT22;18084;53.028;8.834;2024-03-23T04:55:56;5.40;86.00
31455;DHT22;18084;53.028;8.834;2024-03-23T04:58:25;5.40;86.10
31455;DHT22;18084;53.028;8.834;2024-03-23T05:01:00;5.40;86.00
31455;DHT22;18084;53.028;8.834;2024-03-23T05:03:25;5.40;86.00
31455;DHT22;18084;53.028;8.834;2024-03-23T05:05:50;5.40;86.00
31455;DHT22;18084;53.028;8.834;2024-03-23T05:08:16;5.40;85.90
31455;DHT22;18084;53.028;8.834;2024-03-23T05:10:42;5.30;85.90
31455;DHT22;18084;53.028;8.834;2024-03-23T05:13:11;5.30;85.80
31455;DHT22;18084;53.028;8.834;2024-03-23T05:15:37;5.30;85.70
31455;DHT22;18084;53.028;8.834;2024-03-23T05:18:05;5.30;85.70
31455;DHT22;18084;53.028;8.834;2024-03-23T05:20:31;5.30;85.70
31455;DHT22;18084;53.028;8.834;2024-03-23T05:22:57;5.30;85.80
31455;DHT22;18084;53.028;8.834;2024-03-23T05:25:22;5.40;85.60
31455;DHT22;18084;53.028;8.834;2024-03-23T05:27:48;5.30;85.60
31455;DHT22;18084;53.028;8.834;2024-03-23T05:30:14;5.40;85.60
31455;DHT22;18084;53.028;8.834;2024-03-23T05:32:40;5.40;85.60
31455;DHT22;18084;53.028;8.834;2024-03-23T05:35:07;5.30;85.60
31455;DHT22;18084;53.028;8.834;2024-03-23T05:37:33;5.30;85.50
31455;DHT22;18084;53.028;8.834;2024-03-23T05:40:02;5.30;85.60
31455;DHT22;18084;53.028;8.834;2024-03-23T05:42:29;5.30;85.40
31455;DHT22;18084;53.028;8.834;2024-03-23T05:44:54;5.20;85.40
31455;DHT22;18084;53.028;8.834;2024-03-23T05:47:20;5.20;85.50
31455;DHT22;18084;53.028;8.834;2024-03-23T05:49:46;5.20;85.40
31455;DHT22;18084;53.028;8.834;2024-03-23T05:52:11;5.10;85.40
31455;DHT22;18084;53.028;8.834;2024-03-23T05:54:40;5.10;85.50
31455;DHT22;18084;53.028;8.834;2024-03-23T05:57:06;5.10;85.50
31455;DHT22;18084;53.028;8.834;2024-03-23T05:59:34;5.10;85.60
31455;DHT22;18084;53.028;8.834;2024-03-23T06:01:59;5.10;85.50
31455;DHT22;18084;53.028;8.834;2024-03-23T06:04:25;5.20;85.40
31455;DHT22;18084;53.028;8.834;2024-03-23T06:06:52;5.20;85.50
31455;DHT22;18084;53.028;8.834;2024-03-23T06:09:18;5.10;85.40
31455;DHT22;18084;53.028;8.834;2024-03-23T06:11:44;5.20;85.40
31455;DHT22;18084;53.028;8.834;2024-03-23T06:14:10;5.30;85.30
31455;DHT22;18084;53.028;8.834;2024-03-23T06:16:35;5.30;85.20
31455;DHT22;18084;53.028;8.834;2024-03-23T06:19:04;5.30;85.20
31455;DHT22;18084;53.028;8.834;2024-03-23T06:21:32;5.60;85.10
31455;DHT22;18084;53.028;8.834;2024-03-23T06:23:58;5.90;83.70
31455;DHT22;18084;53.028;8.834;2024-03-23T06:26:23;6.20;83.00
31455;DHT22;18084;53.028;8.834;2024-03-23T06:28:49;6.50;82.30
31455;DHT22;18084;53.028;8.834;2024-03-23T06:31:14;6.70;81.30
31455;DHT22;18084;53.028;8.834;2024-03-23T06:33:40;7.00;80.40
31455;DHT22;18084;53.028;8.834;2024-03-23T06:36:09;7.00;80.10
31455;DHT22;18084;53.028;8.834;2024-03-23T06:38:35;6.90;80.30
31455;DHT22;18084;53.028;8.834;2024-03-23T06:41:03;7.00;80.40
31455;DHT22;18084;53.028;8.834;2024-03-23T06:43:28;7.30;80.00
31455;DHT22;18084;53.028;8.834;2024-03-23T06:45:59;7.70;78.60
31455;DHT22;18084;53.028;8.834;2024-03-23T06:48:24;8.00;77.80
31455;DHT22;18084;53.028;8.834;2024-03-23T06:50:54;8.40;77.30
31455;DHT22;18084;53.028;8.834;2024-03-23T06:53:21;8.60;76.30
31455;DHT22;18084;53.028;8.834;2024-03-23T06:55:53;8.80;75.60
31455;DHT22;18084;53.028;8.834;2024-03-23T06:58:24;8.90;75.10
31455;DHT22;18084;53.028;8.834;2024-03-23T07:00:49;9.00;75.10
31455;DHT22;18084;53.028;8.834;2024-03-23T07:03:16;9.40;74.30
31455;DHT22;18084;53.028;8.834;2024-03-23T07:05:43;9.40;73.40
31455;DHT22;18084;53.028;8.834;2024-03-23T07:08:09;9.30;73.70
31455;DHT22;18084;53.028;8.834;2024-03-23T07:10:34;9.40;72.80
31455;DHT22;18084;53.028;8.834;2024-03-23T07:13:01;9.20;73.80
31455;DHT22;18084;53.028;8.834;2024-03-23T07:15:27;9.60;72.30
31455;DHT22;18084;53.028;8.834;2024-03-23T07:17:53;9.50;72.90
31455;DHT22;18084;53.028;8.834;2024-03-23T07:20:19;9.70;72.10
31455;DHT22;18084;53.028;8.834;2024-03-23T07:22:45;9.60;72.80
31455;DHT22;18084;53.028;8.834;2024-03-23T07:25:12;9.80;71.10
31455;DHT22;18084;53.028;8.834;2024-03-23T07:27:38;9.90;71.40
31455;DHT22;18084;53.028;8.834;2024-03-23T07:30:09;10.20;70.40
31455;DHT22;18084;53.028;8.834;2024-03-23T07:32:36;10.20;70.00
31455;DHT22;18084;53.028;8.834;2024-03-23T07:35:01;10.30;69.90
31455;DHT22;18084;53.028;8.834;2024-03-23T07:37:27;10.40;68.60
31455;DHT22;18084;53.028;8.834;2024-03-23T07:39:52;10.20;70.10
31455;DHT22;18084;53.028;8.834;2024-03-23T07:42:20;10.30;69.40
31455;DHT22;18084;53.028;8.834;2024-03-23T07:44:45;10.40;69.70
31455;DHT22;18084;53.028;8.834;2024-03-23T07:47:13;10.80;67.50
31455;DHT22;18084;53.028;8.834;2024-03-23T07:49:40;10.80;67.90
31455;DHT22;18084;53.028;8.834;2024-03-23T07:52:06;10.70;67.70
31455;DHT22;18084;53.028;8.834;2024-03-23T07:54:36;10.50;69.20
31455;DHT22;18084;53.028;8.834;2024-03-23T07:57:02;10.40;68.90
31455;DHT22;18084;53.028;8.834;2024-03-23T07:59:29;10.30;68.70
31455;DHT22;18084;53.028;8.834;2024-03-23T08:01:57;10.40;68.80
31455;DHT22;18084;53.028;8.834;2024-03-23T08:04:23;10.70;68.00
31455;DHT22;18084;53.028;8.834;2024-03-23T08:06:49;10.90;67.10
31455;DHT22;18084;53.028;8.834;2024-03-23T08:09:15;11.10;66.00
31455;DHT22;18084;53.028;8.834;2024-03-23T08:11:40;11.90;63.60
31455;DHT22;18084;53.028;8.834;2024-03-23T08:14:06;12.10;63.40
31455;DHT22;18084;53.028;8.834;2024-03-23T08:16:32;12.10;61.80
31455;DHT22;18084;53.028;8.834;2024-03-23T08:18:59;12.10;62.20
31455;DHT22;18084;53.028;8.834;2024-03-23T08:21:29;12.10;62.70
31455;DHT22;18084;53.028;8.834;2024-03-23T08:23:55;12.80;61.10
31455;DHT22;18084;53.028;8.834;2024-03-23T08:26:21;12.10;62.20
31455;DHT22;18084;53.028;8.834;2024-03-23T08:28:47;11.30;62.00
31455;DHT22;18084;53.028;8.834;2024-03-23T08:31:13;11.00;62.90
31455;DHT22;18084;53.028;8.834;2024-03-23T08:33:40;11.10;62.60
31455;DHT22;18084;53.028;8.834;2024-03-23T08:36:08;11.40;62.70
31455;DHT22;18084;53.028;8.834;2024-03-23T08:38:38;11.60;61.10
31455;DHT22;18084;53.028;8.834;2024-03-23T08:41:13;11.80;61.40
31455;DHT22;18084;53.028;8.834;2024-03-23T08:43:42;10.80;62.90
31455;DHT22;18084;53.028;8.834;2024-03-23T08:46:15;10.30;63.70
31455;DHT22;18084;53.028;8.834;2024-03-23T08:48:42;11.30;62.00
31455;DHT22;18084;53.028;8.834;2024-03-23T08:51:13;11.30;61.00
31455;DHT22;18084;53.028;8.834;2024-03-23T08:53:39;11.80;59.20
31455;DHT22;18084;53.028;8.834;2024-03-23T08:56:06;12.30;57.90
31455;DHT22;18084;53.028;8.834;2024-03-23T08:58:36;12.70;56.80
31455;DHT22;18084;53.028;8.834;2024-03-23T09:01:10;13.00;56.20
31455;DHT22;18084;53.028;8.834;2024-03-23T09:03:37;13.50;55.50
31455;DHT22;18084;53.028;8.834;2024-03-23T09:06:10;14.10;55.00
31455;DHT22;18084;53.028;8.834;2024-03-23T09:08:36;13.90;55.00
31455;DHT22;18084;53.028;8.834;2024-03-23T09:11:06;12.90;55.70
31455;DHT22;18084;53.028;8.834;2024-03-23T09:13:33;11.50;56.50
31455;DHT22;18084;53.028;8.834;2024-03-23T09:15:59;10.90;59.40
31455;DHT22;18084;53.028;8.834;2024-03-23T09:18:25;10.50;59.60
31455;DHT22;18084;53.028;8.834;2024-03-23T09:20:52;11.30;59.30
31455;DHT22;18084;53.028;8.834;2024-03-23T09:23:22;11.00;59.20
31455;DHT22;18084;53.028;8.834;2024-03-23T09:25:48;10.30;61.40
31455;DHT22;18084;53.028;8.834;2024-03-23T09:28:13;9.80;62.60
31455;DHT22;18084;53.028;8.834;2024-03-23T09:30:42;9.60;62.10
31455;DHT22;18084;53.028;8.834;2024-03-23T09:33:09;9.10;66.80
31455;DHT22;18084;53.028;8.834;2024-03-23T09:35:42;8.50;69.90
31455;DHT22;18084;53.028;8.834;2024-03-23T09:38:10;8.00;71.70
31455;DHT22;18084;53.028;8.834;2024-03-23T09:40:41;8.00;72.50
31455;DHT22;18084;53.028;8.834;2024-03-23T09:43:09;7.90;72.20
31455;DHT22;18084;53.028;8.834;2024-03-23T09:45:43;8.10;72.60
31455;DHT22;18084;53.028;8.834;2024-03-23T09:48:09;8.30;72.40
31455;DHT22;18084;53.028;8.834;2024-03-23T09:50:39;9.00;71.10
31455;DHT22;18084;53.028;8.834;2024-03-23T09:53:07;9.50;69.00
31455;DHT22;18084;53.028;8.834;2024-03-23T09:55:33;9.20;68.50
31455;DHT22;18084;53.028;8.834;2024-03-23T09:58:01;9.10;68.40
31455;DHT22;18084;53.028;8.834;2024-03-23T10:00:26;8.90;69.30
31455;DHT22;18084;53.028;8.834;2024-03-23T10:02:56;8.90;69.30
31455;DHT22;18084;53.028;8.834;2024-03-23T10:05:23;9.30;68.60
31455;DHT22;18084;53.028;8.834;2024-03-23T10:07:50;9.60;69.00
31455;DHT22;18084;53.028;8.834;2024-03-23T10:10:17;10.10;67.20
31455;DHT22;18084;53.028;8.834;2024-03-23T10:12:48;10.40;65.60
31455;DHT22;18084;53.028;8.834;2024-03-23T10:15:22;11.10;64.10
31455;DHT22;18084;53.028;8.834;2024-03-23T10:17:48;11.40;63.80
31455;DHT22;18084;53.028;8.834;2024-03-23T10:20:19;11.00;62.30
31455;DHT22;18084;53.028;8.834;2024-03-23T10:22:46;10.70;63.30
31455;DHT22;18084;53.028;8.834;2024-03-23T10:25:12;10.40;62.20
31455;DHT22;18084;53.028;8.834;2024-03-23T10:27:39;9.80;62.00
31455;DHT22;18084;53.028;8.834;2024-03-23T10:30:13;9.40;63.20
31455;DHT22;18084;53.028;8.834;2024-03-23T10:32:40;9.30;63.00
31455;DHT22;18084;53.028;8.834;2024-03-23T10:35:19;9.20;63.20
31455;DHT22;18084;53.028;8.834;2024-03-23T10:37:47;9.20;64.20
31455;DHT22;18084;53.028;8.834;2024-03-23T10:40:15;9.50;63.20
31455;DHT22;18084;53.028;8.834;2024-03-23T10:42:41;10.30;60.50
31455;DHT22;18084;53.028;8.834;2024-03-23T10:45:07;10.50;59.10
31455;DHT22;18084;53.028;8.834;2024-03-23T10:47:38;10.20;59.40
31455;DHT22;18084;53.028;8.834;2024-03-23T10:50:04;9.80;61.60
31455;DHT22;18084;53.028;8.834;2024-03-23T10:52:33;9.70;60.00
31455;DHT22;18084;53.028;8.834;2024-03-23T10:54:59;9.70;59.80
31455;DHT22;18084;53.028;8.834;2024-03-23T10:57:55;9.70;59.80
31455;DHT22;18084;53.028;8.834;2024-03-23T11:00:25;9.40;60.90
31455;DHT22;18084;53.028;8.834;2024-03-23T11:02:51;9.50;62.20
31455;DHT22;18084;53.028;8.834;2024-03-23T11:07:55;9.90;63.30
31455;DHT22;18084;53.028;8.834;2024-03-23T11:10:31;10.10;63.90
31455;DHT22;18084;53.028;8.834;2024-03-23T11:13:21;10.10;62.80
31455;DHT22;18084;53.028;8.834;2024-03-23T11:15:48;10.10;62.10
31455;DHT22;18084;53.028;8.834;2024-03-23T11:18:21;10.20;61.60
31455;DHT22;18084;53.028;8.834;2024-03-23T11:20:47;10.30;62.10
31455;DHT22;18084;53.028;8.834;2024-03-23T11:23:45;10.30;61.50
31455;DHT22;18084;53.028;8.834;2024-03-23T11:26:10;10.40;62.50
31455;DHT22;18084;53.028;8.834;2024-03-23T11:28:36;10.60;60.20
31455;DHT22;18084;53.028;8.834;2024-03-23T11:31:09;10.70;59.50
31455;DHT22;18084;53.028;8.834;2024-03-23T11:33:35;10.70;61.10
31455;DHT22;18084;53.028;8.834;2024-03-23T11:36:04;10.70;59.70
31455;DHT22;18084;53.028;8.834;2024-03-23T11:38:36;10.90;61.00
31455;DHT22;18084;53.028;8.834;2024-03-23T11:41:04;10.70;59.80
31455;DHT22;18084;53.028;8.834;2024-03-23T11:43:30;10.30;61.10
31455;DHT22;18084;53.028;8.834;2024-03-23T11:45:56;10.30;61.20
31455;DHT22;18084;53.028;8.834;2024-03-23T11:48:24;10.30;60.00
31455;DHT22;18084;53.028;8.834;2024-03-23T11:50:53;9.90;59.70
31455;DHT22;18084;53.028;8.834;2024-03-23T11:53:23;10.10;59.70
31455;DHT22;18084;53.028;8.834;2024-03-23T11:55:59;10.60;59.40
31455;DHT22;18084;53.028;8.834;2024-03-23T11:58:29;10.70;58.80
31455;DHT22;18084;53.028;8.834;2024-03-23T12:00:59;10.40;60.00
31455;DHT22;18084;53.028;8.834;2024-03-23T12:03:29;10.00;60.60
31455;DHT22;18084;53.028;8.834;2024-03-23T12:06:03;10.00;61.10
31455;DHT22;18084;53.028;8.834;2024-03-23T12:08:39;10.60;62.60
31455;DHT22;18084;53.028;8.834;2024-03-23T12:11:06;10.40;61.10
31455;DHT22;18084;53.028;8.834;2024-03-23T12:13:33;10.10;61.80
31455;DHT22;18084;53.028;8.834;2024-03-23T12:16:17;9.80;63.50
31455;DHT22;18084;53.028;8.834;2024-03-23T12:18:50;8.80;69.40
31455;DHT22;18084;53.028;8.834;2024-03-23T12:21:43;7.10;72.00
31455;DHT22;18084;53.028;8.834;2024-03-23T12:24:17;6.00;75.00
31455;DHT22;18084;53.028;8.834;2024-03-23T12:27:18;6.00;77.50
31455;DHT22;18084;53.028;8.834;2024-03-23T12:29:47;6.10;78.00
31455;DHT22;18084;53.028;8.834;2024-03-23T12:32:14;6.30;77.70
31455;DHT22;18084;53.028;8.834;2024-03-23T12:34:51;6.30;78.30
31455;DHT22;18084;53.028;8.834;2024-03-23T12:37:34;6.40;78.90
31455;DHT22;18084;53.028;8.834;2024-03-23T12:40:00;6.40;78.40
31455;DHT22;18084;53.028;8.834;2024-03-23T12:42:25;6.30;76.50
31455;DHT22;18084;53.028;8.834;2024-03-23T12:44:51;6.30;76.60
31455;DHT22;18084;53.028;8.834;2024-03-23T12:47:17;6.40;77.60
31455;DHT22;18084;53.028;8.834;2024-03-23T12:49:43;6.80;77.80
31455;DHT22;18084;53.028;8.834;2024-03-23T12:52:12;7.20;76.40
31455;DHT22;18084;53.028;8.834;2024-03-23T12:54:38;7.20;75.50
31455;DHT22;18084;53.028;8.834;2024-03-23T12:57:03;7.10;75.30
31455;DHT22;18084;53.028;8.834;2024-03-23T12:59:29;7.10;76.50
31455;DHT22;18084;53.028;8.834;2024-03-23T13:01:54;7.10;75.80
31455;DHT22;18084;53.028;8.834;2024-03-23T13:04:20;7.10;76.30
31455;DHT22;18084;53.028;8.834;2024-03-23T13:06:47;7.20;76.30
31455;DHT22;18084;53.028;8.834;2024-03-23T13:09:13;7.30;74.90
31455;DHT22;18084;53.028;8.834;2024-03-23T13:11:39;7.60;75.90
31455;DHT22;18084;53.028;8.834;2024-03-23T13:14:05;7.60;75.50
31455;DHT22;18084;53.028;8.834;2024-03-23T13:16:31;7.80;75.70
31455;DHT22;18084;53.028;8.834;2024-03-23T13:18:57;8.30;74.20
31455;DHT22;18084;53.028;8.834;2024-03-23T13:21:22;8.40;73.50
31455;DHT22;18084;53.028;8.834;2024-03-23T13:23:48;8.30;74.20
31455;DHT22;18084;53.028;8.834;2024-03-23T13:26:15;8.50;73.20
31455;DHT22;18084;53.028;8.834;2024-03-23T13:28:41;8.70;72.00
31455;DHT22;18084;53.028;8.834;2024-03-23T13:31:07;8.80;69.80
31455;DHT22;18084;53.028;8.834;2024-03-23T13:33:33;9.30;69.10
31455;DHT22;18084;53.028;8.834;2024-03-23T13:35:59;8.80;68.40
31455;DHT22;18084;53.028;8.834;2024-03-23T13:38:25;8.60;71.20
31455;DHT22;18084;53.028;8.834;2024-03-23T13:40:56;8.10;72.80
31455;DHT22;18084;53.028;8.834;2024-03-23T13:43:23;7.60;75.30
31455;DHT22;18084;53.028;8.834;2024-03-23T13:45:52;7.30;76.00
31455;DHT22;18084;53.028;8.834;2024-03-23T13:48:23;6.90;73.70
31455;DHT22;18084;53.028;8.834;2024-03-23T13:51:09;6.60;75.20
31455;DHT22;18084;53.028;8.834;2024-03-23T13:53:34;6.50;74.80
31455;DHT22;18084;53.028;8.834;2024-03-23T13:56:00;6.50;75.70
31455;DHT22;18084;53.028;8.834;2024-03-23T13:58:26;6.50;76.40
31455;DHT22;18084;53.028;8.834;2024-03-23T14:00:51;6.60;77.30
31455;DHT22;18084;53.028;8.834;2024-03-23T14:03:18;6.60;77.90
31455;DHT22;18084;53.028;8.834;2024-03-23T14:05:45;6.60;76.70
31455;DHT22;18084;53.028;8.834;2024-03-23T14:08:12;6.60;76.90
31455;DHT22;18084;53.028;8.834;2024-03-23T14:10:40;6.60;77.30
31455;DHT22;18084;53.028;8.834;2024-03-23T14:13:06;6.70;76.90
31455;DHT22;18084;53.028;8.834;2024-03-23T14:15:32;6.70;76.40
31455;DHT22;18084;53.028;8.834;2024-03-23T14:17:58;6.80;75.00
31455;DHT22;18084;53.028;8.834;2024-03-23T14:20:24;7.10;76.70
31455;DHT22;18084;53.028;8.834;2024-03-23T14:22:50;7.50;76.70
31455;DHT22;18084;53.028;8.834;2024-03-23T14:25:15;7.90;75.50
31455;DHT22;18084;53.028;8.834;2024-03-23T14:27:43;8.00;73.00
31455;DHT22;18084;53.028;8.834;2024-03-23T14:30:12;8.10;73.30
31455;DHT22;18084;53.028;8.834;2024-03-23T14:32:38;8.20;73.90
31455;DHT22;18084;53.028;8.834;2024-03-23T14:35:04;8.30;71.80
31455;DHT22;18084;53.028;8.834;2024-03-23T14:37:31;8.20;73.60
31455;DHT22;18084;53.028;8.834;2024-03-23T14:39:57;8.00;72.20
31455;DHT22;18084;53.028;8.834;2024-03-23T14:42:23;7.80;71.90
31455;DHT22;18084;53.028;8.834;2024-03-23T14:44:51;8.00;73.80
31455;DHT22;18084;53.028;8.834;2024-03-23T14:47:19;8.10;71.70
31455;DHT22;18084;53.028;8.834;2024-03-23T14:49:46;7.90;72.60
31455;DHT22;18084;53.028;8.834;2024-03-23T14:52:13;7.80;71.30
31455;DHT22;18084;53.028;8.834;2024-03-23T14:54:39;8.00;69.10
31455;DHT22;18084;53.028;8.834;2024-03-23T14:57:07;8.10;66.60
31455;DHT22;18084;53.028;8.834;2024-03-23T14:59:35;8.10;68.10
31455;DHT22;18084;53.028;8.834;2024-03-23T15:02:00;8.40;68.00
31455;DHT22;18084;53.028;8.834;2024-03-23T15:04:26;8.60;66.50
31455;DHT22;18084;53.028;8.834;2024-03-23T15:06:52;8.50;65.70
31455;DHT22;18084;53.028;8.834;2024-03-23T15:09:18;8.60;66.70
31455;DHT22;18084;53.028;8.834;2024-03-23T15:11:43;8.60;65.80
31455;DHT22;18084;53.028;8.834;2024-03-23T15:14:09;8.70;64.60
31455;DHT22;18084;53.028;8.834;2024-03-23T15:16:37;8.80;65.80
31455;DHT22;18084;53.028;8.834;2024-03-23T15:19:02;8.80;65.00
31455;DHT22;18084;53.028;8.834;2024-03-23T15:21:28;8.70;65.80
31455;DHT22;18084;53.028;8.834;2024-03-23T15:23:53;8.50;67.40
31455;DHT22;18084;53.028;8.834;2024-03-23T15:26:19;8.30;68.10
31455;DHT22;18084;53.028;8.834;2024-03-23T15:28:48;8.00;68.70
31455;DHT22;18084;53.028;8.834;2024-03-23T15:31:24;7.80;72.40
31455;DHT22;18084;53.028;8.834;2024-03-23T15:33:51;7.70;72.80
31455;DHT22;18084;53.028;8.834;2024-03-23T15:36:17;7.40;72.50
31455;DHT22;18084;53.028;8.834;2024-03-23T15:38:43;7.30;72.90
31455;DHT22;18084;53.028;8.834;2024-03-23T15:41:09;7.20;73.20
31455;DHT22;18084;53.028;8.834;2024-03-23T15:43:35;7.10;73.50
31455;DHT22;18084;53.028;8.834;2024-03-23T15:46:03;7.10;73.50
31455;DHT22;18084;53.028;8.834;2024-03-23T15:48:29;7.20;73.40
31455;DHT22;18084;53.028;8.834;2024-03-23T15:51:01;7.10;73.40
31455;DHT22;18084;53.028;8.834;2024-03-23T15:53:27;7.10;73.20
31455;DHT22;18084;53.028;8.834;2024-03-23T15:56:00;7.00;71.20
31455;DHT22;18084;53.028;8.834;2024-03-23T15:58:26;7.10;72.90
31455;DHT22;18084;53.028;8.834;2024-03-23T16:00:56;7.10;72.20
31455;DHT22;18084;53.028;8.834;2024-03-23T16:03:24;7.50;73.00
31455;DHT22;18084;53.028;8.834;2024-03-23T16:05:51;7.60;71.10
31455;DHT22;18084;53.028;8.834;2024-03-23T16:08:19;7.60;70.20
31455;DHT22;18084;53.028;8.834;2024-03-23T16:10:45;7.80;68.10
31455;DHT22;18084;53.028;8.834;2024-03-23T16:13:11;7.90;67.70
31455;DHT22;18084;53.028;8.834;2024-03-23T16:15:36;7.90;68.10
31455;DHT22;18084;53.028;8.834;2024-03-23T16:18:02;7.80;67.20
31455;DHT22;18084;53.028;8.834;2024-03-23T16:20:27;7.70;67.60
31455;DHT22;18084;53.028;8.834;2024-03-23T16:22:53;7.70;68.50
31455;DHT22;18084;53.028;8.834;2024-03-23T16:25:20;7.70;68.10
31455;DHT22;18084;53.028;8.834;2024-03-23T16:27:45;7.60;68.00
31455;DHT22;18084;53.028;8.834;2024-03-23T16:30:11;7.50;68.30
31455;DHT22;18084;53.028;8.834;2024-03-23T16:32:37;7.40;68.50
31455;DHT22;18084;53.028;8.834;2024-03-23T16:35:04;7.30;69.50
31455;DHT22;18084;53.028;8.834;2024-03-23T16:37:30;7.30;70.10
31455;DHT22;18084;53.028;8.834;2024-03-23T16:39:56;7.30;69.60